Time;durP1;ratioP1;P1;durP2;ratioP2;P2;SDS_P1;SDS_P2;PMS_P1;PMS_P2;Temp;Humidity;BMP_temperature;BMP_pressure;BME280_temperature;BME280_humidity;BME280_pressure;Samples;Min_cycle;Max_cycle;Signal;HPM_P1;HPM_P2
2022/09/24 00:02:10;;;;;;;24.30;16.30;;;;;;;8.79;69.35;100200.99;107766;1272;94653;-73
2022/09/24 00:04:42;;;;;;;23.20;16.50;;;;;;;8.77;69.40;100202.77;107794;1272;95506;-73
2022/09/24 00:07:14;;;;;;;25.50;17.10;;;;;;;8.75;69.56;100206.65;107750;1272;111164;-73
2022/09/24 00:09:47;;;;;;;27.80;16.60;;;;;;;8.74;69.67;100206.16;106362;1272;139953;-73
2022/09/24 00:12:20;;;;;;;26.30;16.70;;;;;;;8.74;69.70;100203.90;106445;1272;107844;-73
2022/09/24 00:14:52;;;;;;;26.20;17.30;;;;;;;8.72;69.62;100201.36;107684;1273;139170;-73
2022/09/24 00:17:25;;;;;;;26.00;18.00;;;;;;;8.69;69.51;100200.41;107815;1271;94758;-73
2022/09/24 00:19:57;;;;;;;29.70;18.60;;;;;;;8.66;69.71;100201.53;107802;1270;110047;-73
2022/09/24 00:22:29;;;;;;;24.70;17.30;;;;;;;8.63;69.84;100203.69;107648;1273;138507;-73
2022/09/24 00:27:50;;;;;;;25.50;17.20;;;;;;;8.60;69.83;100198.21;107643;1272;139516;-73
2022/09/24 00:30:23;;;;;;;27.90;18.00;;;;;;;8.58;69.77;100197.73;107823;1270;94901;-73
2022/09/24 00:32:55;;;;;;;31.00;20.00;;;;;;;8.55;69.80;100191.92;107695;1271;139128;-73
2022/09/24 00:35:27;;;;;;;29.70;19.50;;;;;;;8.52;69.95;100193.38;107354;1273;108852;-73
2022/09/24 00:37:59;;;;;;;28.50;19.40;;;;;;;8.49;69.89;100188.42;106199;1272;108807;-72
2022/09/24 00:40:33;;;;;;;31.50;19.40;;;;;;;8.49;69.97;100189.46;106125;1273;138264;-72
2022/09/24 00:43:24;;;;;;;31.20;19.20;;;;;;;8.48;70.04;100190.36;106214;1272;96479;-72
2022/09/24 00:46:00;;;;;;;28.30;18.00;;;;;;;8.47;70.02;100191.77;107342;1272;139352;-73
2022/09/24 00:48:33;;;;;;;30.10;18.70;;;;;;;8.44;70.01;100189.94;107731;1273;108853;-73
2022/09/24 00:51:07;;;;;;;27.20;18.30;;;;;;;8.42;69.99;100188.56;106692;1273;138608;-72
2022/09/24 00:53:40;;;;;;;29.80;19.00;;;;;;;8.42;69.97;100185.80;106225;1272;96540;-72
2022/09/24 00:56:15;;;;;;;28.00;19.00;;;;;;;8.42;69.97;100182.17;106300;1273;96491;-72
2022/09/24 00:58:51;;;;;;;30.50;19.10;;;;;;;8.39;69.92;100181.55;107282;1271;110846;-71
2022/09/24 01:01:25;;;;;;;26.00;17.60;;;;;;;8.36;69.97;100182.85;106635;1273;108882;-71
2022/09/24 01:04:00;;;;;;;29.70;18.80;;;;;;;8.33;69.99;100181.16;106096;1272;138344;-71
2022/09/24 01:06:32;;;;;;;26.60;18.20;;;;;;;8.32;70.01;100176.00;107150;1271;96357;-72
2022/09/24 01:09:05;;;;;;;26.20;17.50;;;;;;;8.29;70.11;100174.67;106515;1272;139387;-72
2022/09/24 01:11:49;;;;;;;32.50;19.80;;;;;;;8.28;70.09;100176.27;106256;1273;110113;-72
2022/09/24 01:14:38;;;;;;;29.80;19.20;;;;;;;8.27;70.13;100173.00;106118;1272;140014;-71
2022/09/24 01:17:21;;;;;;;30.40;19.30;;;;;;;8.24;70.23;100173.23;107488;1272;107202;-71
2022/09/24 01:20:11;;;;;;;30.80;20.20;;;;;;;8.21;70.08;100172.42;107765;1272;94842;-71
2022/09/24 01:23:03;;;;;;;32.20;20.40;;;;;;;8.19;70.29;100173.16;107819;1272;94906;-71
2022/09/24 01:25:47;;;;;;;28.40;19.80;;;;;;;8.16;70.30;100169.95;107816;1271;111333;-72
2022/09/24 01:28:37;;;;;;;30.90;20.00;;;;;;;8.15;70.37;100168.59;106515;1272;202766;-72
2022/09/24 01:31:16;;;;;;;29.80;19.40;;;;;;;8.13;70.41;100169.69;107413;1272;109642;-72
2022/09/24 01:33:53;;;;;;;29.30;19.70;;;;;;;8.12;70.37;100169.20;107671;1271;140918;-72
2022/09/24 01:36:28;;;;;;;31.10;19.60;;;;;;;8.11;70.40;100167.32;106268;1272;96460;-72
2022/09/24 01:39:02;;;;;;;29.40;20.10;;;;;;;8.09;70.51;100163.21;106184;1272;138530;-72
2022/09/24 01:41:35;;;;;;;31.50;20.90;;;;;;;8.08;70.47;100158.91;106277;1273;108847;-72
2022/09/24 01:44:08;;;;;;;34.10;21.70;;;;;;;8.06;70.50;100161.17;106218;1273;108824;-73
2022/09/24 01:46:41;;;;;;;32.20;21.20;;;;;;;8.05;70.41;100158.77;106144;1272;138790;-72
2022/09/24 01:49:13;;;;;;;33.10;20.60;;;;;;;8.02;70.37;100160.58;106202;1273;96492;-72
2022/09/24 01:51:50;;;;;;;28.90;20.00;;;;;;;7.99;70.66;100158.39;106100;1272;138380;-72
2022/09/24 01:54:29;;;;;;;31.00;20.10;;;;;;;7.98;70.72;100161.55;106231;1273;108813;-72
2022/09/24 01:57:13;;;;;;;32.60;20.30;;;;;;;7.98;70.77;100157.77;106100;1272;138579;-72
2022/09/24 01:59:54;;;;;;;32.20;20.90;;;;;;;7.95;70.81;100155.56;106194;1273;96495;-72
2022/09/24 02:02:30;;;;;;;31.70;20.60;;;;;;;7.94;70.84;100155.41;106135;1273;138396;-70
2022/09/24 02:05:07;;;;;;;33.20;21.10;;;;;;;7.93;70.97;100156.66;106204;1273;110145;-73
2022/09/24 02:07:49;;;;;;;32.10;22.20;;;;;;;7.89;70.70;100158.45;106214;1273;108246;-72
2022/09/24 02:10:22;;;;;;;34.90;23.10;;;;;;;7.86;70.84;100159.55;106139;1272;138340;-71
2022/09/24 02:13:02;;;;;;;39.70;24.50;;;;;;;7.84;70.77;100155.11;106154;1271;96529;-72
2022/09/24 02:15:39;;;;;;;39.30;25.10;;;;;;;7.80;70.66;100152.09;106211;1271;139491;-72
2022/09/24 02:18:14;;;;;;;35.10;24.30;;;;;;;7.75;70.65;100156.70;106163;1272;111101;-72
2022/09/24 02:20:47;;;;;;;36.50;25.20;;;;;;;7.70;70.76;100156.10;106095;1272;138737;-73
2022/09/24 02:23:24;;;;;;;40.40;25.60;;;;;;;7.66;70.81;100159.30;106251;1273;107856;-72
2022/09/24 02:26:01;;;;;;;38.00;24.40;;;;;;;7.61;70.78;100156.66;106172;1273;96501;-72
2022/09/24 02:28:34;;;;;;;34.70;23.90;;;;;;;7.53;70.83;100158.55;106116;1270;138969;-72
2022/09/24 02:31:10;;;;;;;38.80;24.40;;;;;;;7.50;70.93;100163.80;106253;1272;110779;-72
2022/09/24 02:36:35;;;;;;;41.50;24.80;;;;;;;7.44;71.11;100160.14;106218;1273;108975;-72
2022/09/24 02:39:08;;;;;;;37.90;24.80;;;;;;;7.42;71.35;100161.04;106103;1273;138452;-72
2022/09/24 02:41:41;;;;;;;42.90;27.60;;;;;;;7.40;71.20;100163.52;106222;1272;96484;-72
2022/09/24 02:44:14;;;;;;;37.90;26.70;;;;;;;7.36;71.26;100162.38;106190;1272;111023;-71
2022/09/24 02:46:47;;;;;;;39.10;27.60;;;;;;;7.33;71.36;100157.92;106231;1271;108607;-72
2022/09/24 02:49:20;;;;;;;39.10;26.60;;;;;;;7.30;71.44;100157.99;106265;1271;108140;-72
2022/09/24 02:51:52;;;;;;;41.00;25.80;;;;;;;7.28;71.41;100158.90;106109;1272;139021;-72
2022/09/24 02:54:25;;;;;;;38.60;25.50;;;;;;;7.25;71.43;100151.52;106196;1273;96389;-72
2022/09/24 02:56:57;;;;;;;36.40;25.20;;;;;;;7.25;71.84;100149.95;106089;1271;138316;-72
2022/09/24 02:59:29;;;;;;;37.20;26.00;;;;;;;7.26;71.85;100148.21;106225;1273;109192;-72
2022/09/24 03:02:02;;;;;;;37.50;24.50;;;;;;;7.26;71.85;100146.48;106422;1273;108835;-71
2022/09/24 03:04:34;;;;;;;37.70;24.10;;;;;;;7.26;71.87;100145.09;106066;1272;139499;-72
2022/09/24 03:07:07;;;;;;;39.70;23.80;;;;;;;7.27;72.00;100145.08;106256;1272;96478;-72
2022/09/24 03:09:40;;;;;;;37.30;25.20;;;;;;;7.29;72.02;100145.55;106129;1272;138232;-72
2022/09/24 03:12:12;;;;;;;38.40;23.80;;;;;;;7.30;72.08;100148.48;106208;1273;108960;-72
2022/09/24 03:14:44;;;;;;;36.00;24.60;;;;;;;7.31;72.02;100149.34;106106;1272;138630;-72
2022/09/24 03:17:17;;;;;;;33.70;25.20;;;;;;;7.31;71.98;100146.73;106253;1272;97128;-72
2022/09/24 03:19:49;;;;;;;35.10;25.80;;;;;;;7.32;72.21;100142.03;106913;1271;96377;-72
2022/09/24 03:22:21;;;;;;;42.50;29.00;;;;;;;7.34;72.06;100143.38;107108;1272;138301;-72
2022/09/24 03:24:53;;;;;;;35.90;28.10;;;;;;;7.37;72.14;100144.02;106314;1273;108841;-72
2022/09/24 03:27:25;;;;;;;38.10;28.90;;;;;;;7.39;71.88;100141.55;106126;1271;138635;-72
2022/09/24 03:32:49;;;;;;;38.90;28.60;;;;;;;7.37;71.78;100137.97;106052;1273;138384;-72
2022/09/24 03:35:21;;;;;;;40.90;31.20;;;;;;;7.34;71.75;100134.21;107815;1272;111120;-73
2022/09/24 03:37:53;;;;;;;42.30;33.60;;;;;;;7.33;71.85;100131.65;107833;1272;107763;-72
2022/09/24 03:40:25;;;;;;;40.50;31.30;;;;;;;7.31;71.98;100130.29;107690;1273;139480;-73
2022/09/24 03:42:57;;;;;;;39.80;29.90;;;;;;;7.33;72.14;100132.85;107809;1272;94499;-73
2022/09/24 03:45:29;;;;;;;38.50;27.50;;;;;;;7.36;72.11;100132.27;107710;1271;139346;-72
2022/09/24 03:48:01;;;;;;;37.70;26.00;;;;;;;7.39;71.88;100132.73;107807;1272;110443;-73
2022/09/24 03:50:35;;;;;;;36.80;25.80;;;;;;;7.41;71.86;100137.54;107657;1271;139364;-73
2022/09/24 03:53:07;;;;;;;33.60;25.30;;;;;;;7.42;71.82;100138.02;107263;1273;108992;-73
2022/09/24 03:55:43;;;;;;;37.80;25.90;;;;;;;7.45;71.78;100136.59;106177;1273;96544;-72
2022/09/24 03:58:17;;;;;;;37.90;25.80;;;;;;;7.46;71.72;100139.33;106068;1272;138446;-73
2022/09/24 04:00:50;;;;;;;38.00;28.40;;;;;;;7.44;71.65;100137.64;106226;1273;110439;-73
2022/09/24 04:03:23;;;;;;;39.70;28.80;;;;;;;7.42;71.73;100144.08;107094;1272;138440;-73
2022/09/24 04:05:55;;;;;;;40.10;29.30;;;;;;;7.40;71.77;100143.79;107765;1272;108965;-73
2022/09/24 04:08:27;;;;;;;37.20;27.00;;;;;;;7.38;71.66;100147.11;107664;1272;138539;-73
2022/09/24 04:11:00;;;;;;;34.90;24.40;;;;;;;7.37;71.62;100145.24;106604;1273;97305;-72
2022/09/24 04:13:32;;;;;;;32.40;22.80;;;;;;;7.36;71.61;100147.50;106378;1271;111130;-73
2022/09/24 04:16:05;;;;;;;32.90;23.00;;;;;;;7.34;71.53;100149.77;106140;1273;138448;-72
2022/09/24 04:18:38;;;;;;;33.70;22.10;;;;;;;7.32;71.55;100152.59;107232;1272;107867;-72
2022/09/24 04:21:11;;;;;;;28.60;20.90;;;;;;;7.30;71.59;100154.36;106060;1271;138602;-72
2022/09/24 04:23:43;;;;;;;31.30;21.20;;;;;;;7.27;71.52;100151.48;106181;1271;96460;-72
2022/09/24 04:26:16;;;;;;;31.00;21.80;;;;;;;7.25;71.44;100146.00;107045;1272;110203;-73
2022/09/24 04:28:49;;;;;;;30.30;22.70;;;;;;;7.23;71.48;100144.13;106173;1273;245457;-72
2022/09/24 04:31:22;;;;;;;33.10;24.10;;;;;;;7.22;71.37;100146.58;106207;1273;108630;-71
2022/09/24 04:33:54;;;;;;;34.40;24.50;;;;;;;7.20;71.62;100142.81;106050;1273;138407;-71
2022/09/24 04:36:27;;;;;;;31.50;24.70;;;;;;;7.18;71.56;100139.55;106169;1273;96487;-72
2022/09/24 04:38:59;;;;;;;33.40;25.00;;;;;;;7.17;71.75;100144.58;106155;1273;138508;-71
2022/09/24 04:41:33;;;;;;;34.80;24.80;;;;;;;7.17;71.78;100143.88;106569;1273;109073;-72
2022/09/24 04:44:06;;;;;;;33.20;24.50;;;;;;;7.18;71.72;100140.59;106949;1273;108797;-72
2022/09/24 04:46:39;;;;;;;34.70;25.90;;;;;;;7.23;71.84;100146.91;106113;1272;138283;-72
2022/09/24 04:49:13;;;;;;;33.40;25.60;;;;;;;7.25;71.84;100144.94;106236;1273;96397;-72
2022/09/24 04:51:45;;;;;;;39.00;25.40;;;;;;;7.26;71.87;100147.17;107638;1272;138413;-73
2022/09/24 04:54:17;;;;;;;30.60;23.00;;;;;;;7.27;71.75;100148.36;106222;1273;108180;-72
2022/09/24 04:56:49;;;;;;;30.00;21.80;;;;;;;7.29;71.77;100149.20;106550;1272;138683;-72
2022/09/24 04:59:21;;;;;;;28.20;20.00;;;;;;;7.33;71.72;100150.48;106293;1273;96609;-72
2022/09/24 05:01:54;;;;;;;26.00;18.80;;;;;;;7.37;71.60;100150.41;106196;1273;96484;-72
2022/09/24 05:04:26;;;;;;;26.20;19.60;;;;;;;7.44;71.61;100149.06;107626;1271;138756;-72
2022/09/24 05:06:58;;;;;;;28.20;19.50;;;;;;;7.51;71.37;100145.25;107583;1271;106504;-72
2022/09/24 05:09:31;;;;;;;26.10;18.70;;;;;;;7.60;71.49;100146.31;106065;1273;138601;-72
2022/09/24 05:12:04;;;;;;;26.30;18.10;;;;;;;7.68;71.26;100145.24;106177;1273;96483;-72
2022/09/24 05:14:37;;;;;;;26.00;18.00;;;;;;;7.78;71.05;100139.33;106107;1273;138605;-72
2022/09/24 05:17:09;;;;;;;25.40;18.10;;;;;;;7.92;70.98;100136.23;106221;1272;111080;-72
2022/09/24 05:19:41;;;;;;;21.50;16.70;;;;;;;8.29;70.68;100142.98;106201;1273;107637;-72
2022/09/24 05:22:14;;;;;;;23.90;17.20;;;;;;;8.76;70.14;100140.23;106144;1271;138438;-72
2022/09/24 05:24:46;;;;;;;23.80;16.30;;;;;;;9.13;69.42;100140.80;106247;1273;96588;-72
2022/09/24 05:27:19;;;;;;;21.40;16.10;;;;;;;9.78;68.82;100133.49;106134;1273;138892;-72
2022/09/24 05:29:51;;;;;;;20.60;16.30;;;;;;;10.70;67.79;100131.39;106215;1273;111454;-72
2022/09/24 05:32:24;;;;;;;19.60;15.00;;;;;;;11.63;66.66;100129.58;106051;1273;138946;-73
2022/09/24 05:34:56;;;;;;;23.10;16.30;;;;;;;12.58;65.66;100126.45;106217;1273;108746;-72
2022/09/24 05:37:28;;;;;;;21.80;15.40;;;;;;;13.45;64.65;100125.98;106161;1273;96543;-72
2022/09/24 05:40:46;;;;;;;21.10;15.20;;;;;;;14.16;63.39;100121.20;106081;1273;139427;-72
2022/09/24 05:42:59;;;;;;;20.90;14.80;;;;;;;14.58;61.89;100119.86;106196;1273;111641;-72
2022/09/24 05:45:32;;;;;;;23.00;15.70;;;;;;;14.58;61.20;100122.66;106606;1272;140463;-73
2022/09/24 05:48:04;;;;;;;20.80;13.70;;;;;;;14.60;60.51;100120.60;106149;1273;109095;-73
2022/09/24 05:50:36;;;;;;;17.50;13.10;;;;;;;14.55;59.94;100122.45;106068;1273;139287;-72
2022/09/24 05:53:09;;;;;;;15.20;12.60;;;;;;;14.44;59.26;100120.15;106186;1273;96497;-72
2022/09/24 05:55:42;;;;;;;19.80;13.00;;;;;;;14.39;58.66;100122.14;106202;1272;111069;-72
2022/09/24 05:58:14;;;;;;;16.10;12.30;;;;;;;14.57;57.94;100122.34;106153;1272;138101;-72
2022/09/24 06:00:46;;;;;;;15.20;11.30;;;;;;;14.63;57.35;100124.83;106189;1273;107188;-72
2022/09/24 06:03:20;;;;;;;14.20;11.80;;;;;;;14.73;56.85;100128.70;106071;1273;138080;-72
2022/09/24 06:05:52;;;;;;;17.20;11.90;;;;;;;14.81;56.35;100129.70;106194;1273;96475;-72
2022/09/24 06:08:24;;;;;;;15.90;12.20;;;;;;;14.80;55.82;100133.58;106139;1273;137994;-72
2022/09/24 06:11:01;;;;;;;15.30;11.80;;;;;;;14.85;55.79;100131.04;106180;1272;108731;-72
2022/09/24 06:13:34;;;;;;;18.20;12.00;;;;;;;14.79;55.55;100133.45;106212;1272;109287;-72
2022/09/24 06:16:10;;;;;;;15.40;12.20;;;;;;;14.76;56.16;100132.38;106140;1273;138933;-71
2022/09/24 06:18:44;;;;;;;16.10;12.30;;;;;;;14.85;56.28;100134.21;106212;1273;96521;-73
2022/09/24 06:21:17;;;;;;;15.50;12.20;;;;;;;15.05;56.15;100136.81;106084;1273;138074;-72
2022/09/24 06:23:50;;;;;;;16.30;13.00;;;;;;;15.43;55.79;100138.85;106240;1273;108920;-72
2022/09/24 06:26:24;;;;;;;16.90;11.80;;;;;;;15.61;55.46;100133.86;106108;1273;138297;-72
2022/09/24 06:28:57;;;;;;;15.40;11.60;;;;;;;15.68;55.19;100134.38;106189;1272;96555;-71
2022/09/24 06:31:36;;;;;;;15.90;12.20;;;;;;;15.66;54.62;100134.11;106250;1272;96373;-72
2022/09/24 06:34:09;;;;;;;17.40;14.20;;;;;;;15.69;54.35;100132.55;106068;1273;138145;-71
2022/09/24 06:36:41;;;;;;;16.20;12.20;;;;;;;15.68;54.38;100132.95;106233;1273;108868;-71
2022/09/24 06:39:13;;;;;;;16.60;11.80;;;;;;;15.74;54.29;100131.91;106187;1271;138331;-71
2022/09/24 06:41:45;;;;;;;18.30;12.50;;;;;;;15.78;54.10;100132.55;106174;1272;96508;-72
2022/09/24 06:44:19;;;;;;;18.60;12.70;;;;;;;15.80;53.55;100132.13;106224;1273;96493;-73
2022/09/24 06:46:52;;;;;;;17.10;12.10;;;;;;;15.77;53.43;100137.16;106163;1273;110595;-73
2022/09/24 06:49:24;;;;;;;16.40;11.50;;;;;;;15.73;53.45;100134.63;106250;1273;108935;-72
2022/09/24 06:52:04;;;;;;;17.00;12.60;;;;;;;15.77;53.63;100141.27;106091;1273;138214;-71
2022/09/24 06:54:37;;;;;;;17.20;12.00;;;;;;;15.85;53.54;100136.73;106186;1273;96500;-72
2022/09/24 06:57:10;;;;;;;15.40;11.50;;;;;;;16.01;53.52;100142.35;106046;1273;139920;-72
2022/09/24 06:59:42;;;;;;;18.60;11.40;;;;;;;16.30;53.50;100141.04;106199;1272;111394;-72
2022/09/24 07:02:14;;;;;;;16.70;11.10;;;;;;;16.63;53.05;100141.73;106481;1271;107786;-72
2022/09/24 07:04:46;;;;;;;15.00;11.30;;;;;;;16.90;52.73;100141.76;107654;1272;137903;-72
2022/09/24 07:07:32;;;;;;;12.90;10.40;;;;;;;17.15;52.40;100146.23;107812;1272;94788;-72
2022/09/24 07:10:07;;;;;;;14.10;10.30;;;;;;;17.39;52.11;100142.23;107667;1273;138628;-72
2022/09/24 07:12:41;;;;;;;14.80;9.80;;;;;;;17.45;51.39;100141.31;107386;1272;111292;-72
2022/09/24 07:15:14;;;;;;;14.60;10.20;;;;;;;17.45;51.33;100146.98;106349;1273;138125;-72
2022/09/24 07:17:46;;;;;;;14.30;11.10;;;;;;;17.52;51.40;100148.28;106164;1273;107765;-71
2022/09/24 07:20:18;;;;;;;14.20;10.20;;;;;;;17.76;50.82;100150.14;106246;1273;96639;-72
2022/09/24 07:22:50;;;;;;;16.10;11.20;;;;;;;18.00;50.90;100153.38;106243;1273;96468;-71
2022/09/24 07:25:22;;;;;;;14.00;10.40;;;;;;;18.20;50.53;100153.13;106237;1272;110142;-72
2022/09/24 07:27:55;;;;;;;15.20;10.60;;;;;;;18.41;50.11;100153.32;106074;1273;138123;-72
2022/09/24 07:30:27;;;;;;;14.10;10.30;;;;;;;18.67;50.13;100153.20;106276;1273;108888;-72
2022/09/24 07:32:59;;;;;;;13.80;10.50;;;;;;;18.99;49.97;100152.46;106119;1273;138217;-72
2022/09/24 07:35:32;;;;;;;15.00;10.80;;;;;;;19.51;49.51;100150.91;106103;1274;96498;-72
2022/09/24 07:38:06;;;;;;;11.80;9.10;;;;;;;20.06;48.49;100149.77;106219;1273;110105;-73
2022/09/24 07:40:38;;;;;;;13.40;9.10;;;;;;;20.39;47.17;100152.33;106119;1273;140854;-72
2022/09/24 07:43:12;;;;;;;9.60;6.90;;;;;;;20.78;46.98;100153.83;106172;1273;108765;-72
2022/09/24 07:45:45;;;;;;;10.20;7.20;;;;;;;21.63;46.06;100149.52;106052;1273;138772;-73
2022/09/24 07:48:18;;;;;;;11.10;7.40;;;;;;;22.71;45.22;100141.90;107810;1272;94507;-73
2022/09/24 07:50:51;;;;;;;8.70;5.80;;;;;;;23.97;43.94;100136.09;106715;1273;138133;-72
2022/09/24 07:53:23;;;;;;;7.20;6.30;;;;;;;24.94;42.41;100135.30;106177;1273;109366;-72
2022/09/24 07:56:00;;;;;;;9.50;5.90;;;;;;;25.75;41.79;100133.23;106171;1271;108913;-73
2022/09/24 07:58:33;;;;;;;6.60;5.40;;;;;;;26.41;40.55;100127.86;106896;1271;137768;-73
2022/09/24 08:01:05;;;;;;;7.50;5.30;;;;;;;26.96;39.45;100127.55;106536;1273;96464;-72
2022/09/24 08:03:39;;;;;;;7.10;5.30;;;;;;;27.09;37.84;100129.45;106067;1273;137710;-72
2022/09/24 08:06:12;;;;;;;5.90;4.30;;;;;;;27.12;37.78;100128.48;106307;1273;109225;-72
2022/09/24 08:08:44;;;;;;;9.40;4.90;;;;;;;27.59;37.18;100126.05;107172;1272;137916;-72
2022/09/24 08:11:16;;;;;;;6.10;4.70;;;;;;;28.03;36.49;100127.11;106175;1273;96502;-72
2022/09/24 08:13:49;;;;;;;7.60;5.20;;;;;;;27.86;35.65;100126.63;106200;1273;96484;-72
2022/09/24 08:16:22;;;;;;;7.10;5.30;;;;;;;27.56;35.42;100126.01;106080;1273;138734;-73
2022/09/24 08:18:54;;;;;;;7.50;5.20;;;;;;;27.35;35.54;100123.01;106175;1273;107921;-72
2022/09/24 08:21:27;;;;;;;7.10;5.00;;;;;;;27.44;35.04;100126.69;107634;1271;137818;-73
2022/09/24 08:23:59;;;;;;;7.30;4.80;;;;;;;27.48;34.85;100126.60;107790;1272;94502;-73
2022/09/24 08:26:32;;;;;;;8.90;4.60;;;;;;;27.48;33.94;100127.67;107118;1272;137825;-73
2022/09/24 08:29:04;;;;;;;4.80;4.30;;;;;;;27.23;33.81;100127.85;107749;1272;110969;-73
2022/09/24 08:31:37;;;;;;;6.50;4.90;;;;;;;27.23;34.04;100121.80;106219;1273;108796;-73
2022/09/24 08:34:09;;;;;;;7.00;4.90;;;;;;;27.44;34.01;100121.52;107247;1273;139069;-72
2022/09/24 08:36:42;;;;;;;7.30;4.90;;;;;;;27.52;33.59;100121.91;107723;1273;95786;-74
2022/09/24 08:39:15;;;;;;;5.90;5.00;;;;;;;27.44;32.89;100123.17;107624;1272;138681;-79
2022/09/24 08:41:56;;;;;;;6.20;4.70;;;;;;;27.18;32.27;100125.18;107720;1272;112815;-74
2022/09/24 08:47:37;;;;;;;4.40;4.00;;;;;;;26.99;32.53;100123.52;107660;1272;108893;-70
2022/09/24 08:50:15;;;;;;;4.20;3.70;;;;;;;27.43;32.45;100123.59;107740;1273;96195;-70
2022/09/24 08:53:13;;;;;;;8.10;4.10;;;;;;;27.77;32.02;100122.17;107689;1272;138523;-71
2022/09/24 08:55:49;;;;;;;4.60;3.70;;;;;;;28.19;31.45;100126.74;107777;1271;111392;-71
2022/09/24 08:58:45;;;;;;;4.80;3.00;;;;;;;28.37;30.99;100124.84;107701;1273;137880;-71
2022/09/24 09:01:28;;;;;;;4.20;3.00;;;;;;;28.86;31.22;100123.45;107782;1273;108112;-71
2022/09/24 09:04:10;;;;;;;4.50;3.20;;;;;;;29.10;30.37;100124.06;107671;1272;138055;-71
2022/09/24 09:06:55;;;;;;;4.70;3.10;;;;;;;29.07;30.14;100119.94;107762;1273;96150;-71
2022/09/24 09:09:32;;;;;;;3.20;2.90;;;;;;;29.38;30.70;100121.84;107683;1273;137914;-71
2022/09/24 09:12:11;;;;;;;4.30;3.20;;;;;;;29.73;30.12;100111.65;107779;1272;107853;-71
2022/09/24 09:14:49;;;;;;;3.80;3.10;;;;;;;29.97;29.92;100108.27;107680;1272;138175;-72
2022/09/24 09:17:34;;;;;;;4.10;2.90;;;;;;;30.13;29.75;100108.71;107797;1272;96056;-71
2022/09/24 09:20:11;;;;;;;4.10;2.80;;;;;;;30.18;28.47;100109.83;107813;1271;96039;-71
2022/09/24 09:22:48;;;;;;;3.10;2.30;;;;;;;30.15;28.63;100106.55;106541;1273;137628;-70
2022/09/24 09:25:27;;;;;;;3.30;2.40;;;;;;;30.31;28.49;100109.45;106254;1273;108839;-71
2022/09/24 09:28:02;;;;;;;3.90;2.50;;;;;;;30.49;28.18;100107.97;106095;1273;138020;-71
2022/09/24 09:30:42;;;;;;;3.50;1.90;;;;;;;30.41;27.33;100109.41;106233;1273;97888;-71
2022/09/24 09:33:30;;;;;;;2.60;1.90;;;;;;;30.17;27.60;100105.96;106127;1273;137670;-70
2022/09/24 09:36:10;;;;;;;2.70;2.30;;;;;;;30.25;27.60;100100.36;107497;1272;112108;-72
2022/09/24 09:38:49;;;;;;;3.20;2.30;;;;;;;30.32;27.61;100104.77;106189;1273;137997;-70
2022/09/24 09:41:29;;;;;;;5.20;2.60;;;;;;;30.25;26.95;100101.96;106156;1273;107867;-71
2022/09/24 09:44:11;;;;;;;3.00;2.10;;;;;;;29.69;26.93;100099.34;106251;1273;97856;-71
2022/09/24 09:46:51;;;;;;;3.70;2.20;;;;;;;29.56;27.45;100101.80;106147;1273;137784;-70
2022/09/24 09:49:27;;;;;;;3.20;2.10;;;;;;;29.48;27.24;100104.08;106213;1273;112464;-70
2022/09/24 09:52:02;;;;;;;3.30;2.40;;;;;;;29.45;27.90;100107.63;106064;1271;137963;-70
2022/09/24 09:54:42;;;;;;;2.10;1.90;;;;;;;29.54;27.86;100103.28;106240;1272;108781;-70
2022/09/24 09:57:18;;;;;;;3.00;2.70;;;;;;;29.58;27.97;100101.71;106064;1274;137957;-71
2022/09/24 09:59:53;;;;;;;3.20;2.50;;;;;;;29.37;27.36;100108.25;106186;1274;97852;-71
2022/09/24 10:02:27;;;;;;;4.80;2.30;;;;;;;28.96;27.30;100106.53;106110;1273;138054;-70
2022/09/24 10:05:02;;;;;;;4.40;2.40;;;;;;;28.48;27.18;100105.19;106228;1274;108893;-69
2022/09/24 10:07:46;;;;;;;6.40;2.60;;;;;;;28.08;27.30;100103.80;106150;1273;107404;-70
2022/09/24 10:10:22;;;;;;;4.50;2.40;;;;;;;27.35;26.90;100105.55;106066;1273;137985;-70
2022/09/24 10:12:54;;;;;;;;;;;;;;;26.58;26.91;100102.59;106181;1274;97894;-71
2022/09/24 10:15:27;;;;;;;3.60;2.90;;;;;;;25.79;27.38;100098.91;107716;1273;124480;-70
2022/09/24 10:18:01;;;;;;;4.80;2.60;;;;;;;25.23;28.28;100105.00;107758;1273;108930;-70
2022/09/24 10:20:35;;;;;;;6.30;3.10;;;;;;;24.73;29.31;100103.35;107499;1273;138789;-71
2022/09/24 10:23:18;;;;;;;4.70;3.50;;;;;;;24.14;28.56;100104.66;106414;1274;97963;-70
2022/09/24 10:25:58;;;;;;;5.10;3.50;;;;;;;23.31;29.26;100104.43;106224;1274;97855;-70
2022/09/24 10:31:26;;;;;;;5.40;3.00;;;;;;;22.05;31.36;100110.19;106249;1274;107773;-70
2022/09/24 10:34:01;;;;;;;4.20;3.10;;;;;;;21.68;31.56;100109.14;106081;1273;137941;-70
2022/09/24 10:36:33;;;;;;;4.60;3.20;;;;;;;21.50;32.60;100109.10;106155;1274;98557;-70
2022/09/24 10:39:12;;;;;;;5.30;3.60;;;;;;;21.53;32.90;100104.65;106334;1274;137873;-70
2022/09/24 10:41:50;;;;;;;9.70;4.50;;;;;;;21.57;32.87;100102.02;107484;1273;112545;-70
2022/09/24 10:44:24;;;;;;;9.10;4.10;;;;;;;21.60;33.26;100101.26;106197;1273;107662;-71
2022/09/24 10:47:20;;;;;;;5.00;3.40;;;;;;;21.49;32.90;100099.29;106323;1273;108814;-70
2022/09/24 10:50:15;;;;;;;6.00;3.30;;;;;;;21.20;32.87;100103.91;107752;1272;96089;-70
2022/09/24 10:52:51;;;;;;;4.00;3.10;;;;;;;20.78;32.64;100097.98;106131;1274;137575;-70
2022/09/24 10:55:53;;;;;;;5.70;3.10;;;;;;;20.45;33.27;100099.75;106621;1273;112477;-71
2022/09/24 10:58:49;;;;;;;4.30;3.50;;;;;;;20.17;33.35;100097.96;107677;1272;138855;-70
2022/09/24 11:01:32;;;;;;;7.60;2.80;;;;;;;19.76;33.77;100100.46;106728;1274;106486;-70
2022/09/24 11:04:30;;;;;;;6.40;2.60;;;;;;;19.63;34.22;100099.69;106686;1274;138584;-70
2022/09/24 11:07:34;;;;;;;4.70;1.90;;;;;;;19.70;34.55;100101.98;106236;1274;97681;-70
2022/09/24 11:10:21;;;;;;;3.70;2.30;;;;;;;19.67;33.78;100098.45;106139;1274;137642;-70
2022/09/24 11:13:01;;;;;;;;;;;;;;;19.69;34.07;100099.96;107545;1273;107868;-71
2022/09/24 11:15:59;;;;;;;2.30;2.10;;;;;;;19.66;34.24;100097.68;107659;1272;124816;-71
2022/09/24 11:18:44;;;;;;;4.00;2.30;;;;;;;19.59;34.26;100102.23;107711;1273;96519;-70
2022/09/24 11:21:29;;;;;;;2.70;2.10;;;;;;;19.58;34.10;100096.13;106011;1274;137677;-70
2022/09/24 11:24:24;;;;;;;2.50;2.20;;;;;;;19.71;34.15;100096.77;106094;1274;111216;-70
2022/09/24 11:27:08;;;;;;;3.20;2.30;;;;;;;19.90;34.25;100089.59;107038;1272;138107;-70
2022/09/24 11:29:54;;;;;;;3.70;2.30;;;;;;;20.06;34.92;100093.55;106247;1274;109257;-69
2022/09/24 11:32:34;;;;;;;3.10;1.80;;;;;;;20.17;34.37;100091.77;106140;1274;139019;-72
2022/09/24 11:35:25;;;;;;;1.60;1.40;;;;;;;20.26;34.49;100090.95;106230;1274;97828;-70
2022/09/24 11:38:04;;;;;;;1.90;1.30;;;;;;;20.31;33.56;100090.09;106213;1274;111616;-71
2022/09/24 11:41:03;;;;;;;1.40;1.20;;;;;;;20.10;32.64;100094.27;107171;1273;137912;-70
2022/09/24 11:43:56;;;;;;;1.60;1.10;;;;;;;19.84;32.45;100083.48;106669;1271;107728;-71
2022/09/24 11:46:46;;;;;;;2.90;1.40;;;;;;;19.65;32.52;100086.32;106272;1271;137873;-70
2022/09/24 11:49:48;;;;;;;2.20;1.10;;;;;;;19.63;32.80;100084.66;106226;1274;97832;-70
2022/09/24 11:52:29;;;;;;;3.40;1.60;;;;;;;19.56;32.86;100086.73;106775;1274;139542;-70
2022/09/24 11:55:13;;;;;;;1.00;0.90;;;;;;;19.59;33.11;100077.02;106497;1274;110688;-70
2022/09/24 11:57:50;;;;;;;2.20;1.50;;;;;;;19.79;33.62;100075.02;106513;1272;140000;-70
2022/09/24 12:00:23;;;;;;;1.80;1.20;;;;;;;20.04;33.85;100081.16;107790;1272;96104;-70